createdAt,value
2018-01-30T00:00:39.801Z,9.04
2018-01-30T00:01:39.582Z,9.02
2018-01-30T00:02:39.350Z,9.04
2018-01-30T00:03:39.515Z,9.04
2018-01-30T00:04:39.468Z,9.02
2018-01-30T00:05:39.656Z,9.06
2018-01-30T00:06:40.674Z,9.03
2018-01-30T00:07:39.679Z,9.03
2018-01-30T00:08:40.312Z,9.03
2018-01-30T00:09:40.207Z,9.02
2018-01-30T00:10:39.792Z,9.04
2018-01-30T00:11:39.551Z,9.03
2018-01-30T00:12:40.042Z,9
2018-01-30T00:13:39.539Z,9
2018-01-30T00:14:39.567Z,9.03
2018-01-30T00:15:39.345Z,9.02
2018-01-30T00:16:40.153Z,9.02
2018-01-30T00:17:39.679Z,9
2018-01-30T00:18:39.499Z,8.99
2018-01-30T00:19:39.762Z,8.99
2018-01-30T00:20:39.638Z,8.99
2018-01-30T00:21:40.097Z,8.98
2018-01-30T00:22:39.600Z,8.96
2018-01-30T00:23:39.534Z,8.98
2018-01-30T00:24:39.562Z,8.99
2018-01-30T00:25:40.341Z,8.95
2018-01-30T00:26:40.105Z,8.93
2018-01-30T00:27:39.579Z,8.95
2018-01-30T00:28:39.325Z,8.95
2018-01-30T00:29:39.297Z,8.93
2018-01-30T00:30:39.346Z,8.92
2018-01-30T00:31:39.652Z,8.89
2018-01-30T00:32:39.477Z,8.91
2018-01-30T00:33:39.824Z,8.86
2018-01-30T00:34:39.625Z,8.88
2018-01-30T00:35:39.695Z,8.86
2018-01-30T00:36:39.625Z,8.83
2018-01-30T00:37:39.537Z,8.86
2018-01-30T00:38:39.470Z,8.82
2018-01-30T00:39:39.732Z,8.86
2018-01-30T00:40:39.716Z,8.82
2018-01-30T00:41:39.587Z,8.83
2018-01-30T00:42:39.541Z,8.8
2018-01-30T00:43:39.617Z,8.83
2018-01-30T00:44:39.514Z,8.8
2018-01-30T00:45:39.624Z,8.8
2018-01-30T00:46:39.426Z,8.78
2018-01-30T00:47:39.464Z,8.78
2018-01-30T00:48:39.597Z,8.76
2018-01-30T00:49:39.766Z,8.76
2018-01-30T00:50:39.707Z,8.78
2018-01-30T00:51:39.336Z,8.78
2018-01-30T00:52:39.902Z,8.75
2018-01-30T00:53:39.419Z,8.76
2018-01-30T00:54:39.435Z,8.75
2018-01-30T00:55:39.386Z,8.75
2018-01-30T00:56:39.610Z,8.74
2018-01-30T00:57:39.661Z,8.76
2018-01-30T00:58:39.702Z,8.74
2018-01-30T00:59:39.585Z,8.74
2018-01-30T01:00:39.834Z,8.75
2018-01-30T01:01:40.134Z,8.72
2018-01-30T01:02:39.461Z,8.74
2018-01-30T01:03:39.440Z,8.74
2018-01-30T01:04:39.323Z,8.74
2018-01-30T01:05:39.800Z,8.74
2018-01-30T01:06:39.680Z,8.72
2018-01-30T01:07:39.708Z,8.75
2018-01-30T01:08:39.418Z,8.75
2018-01-30T01:09:39.332Z,8.75
2018-01-30T01:10:39.731Z,8.75
2018-01-30T01:11:39.601Z,8.76
2018-01-30T01:12:39.788Z,8.74
2018-01-30T01:13:40.016Z,8.75
2018-01-30T01:14:39.467Z,8.75
2018-01-30T01:15:39.722Z,8.75
2018-01-30T01:16:40.194Z,8.75
2018-01-30T01:17:39.623Z,8.75
2018-01-30T01:18:39.877Z,8.76
2018-01-30T01:19:39.512Z,8.76
2018-01-30T01:20:39.648Z,8.78
2018-01-30T01:21:39.398Z,8.76
2018-01-30T01:22:39.775Z,8.75
2018-01-30T01:23:39.978Z,8.75
2018-01-30T01:24:39.859Z,8.75
2018-01-30T01:25:39.774Z,8.74
2018-01-30T01:26:39.671Z,8.74
2018-01-30T01:27:39.550Z,8.72
2018-01-30T01:28:39.922Z,8.71
2018-01-30T01:29:40.020Z,8.72
2018-01-30T01:30:39.767Z,8.72
2018-01-30T01:31:39.825Z,8.71
2018-01-30T01:32:39.487Z,8.74
2018-01-30T01:33:40.550Z,8.71
2018-01-30T01:34:40.614Z,8.71
2018-01-30T01:35:40.483Z,8.69
2018-01-30T01:36:39.648Z,8.69
2018-01-30T01:37:39.480Z,8.69
2018-01-30T01:38:39.706Z,8.69
2018-01-30T01:39:40.389Z,8.69
2018-01-30T01:40:39.573Z,8.69
2018-01-30T01:41:40.206Z,8.71
2018-01-30T01:42:39.961Z,8.69
2018-01-30T01:43:39.618Z,8.71
2018-01-30T01:44:39.598Z,8.68
2018-01-30T01:45:39.712Z,8.66
2018-01-30T01:46:39.692Z,8.69
2018-01-30T01:47:40.558Z,8.69
2018-01-30T01:48:39.478Z,8.65
2018-01-30T01:49:40.106Z,8.64
2018-01-30T01:50:39.610Z,8.65
2018-01-30T01:51:39.845Z,8.58
2018-01-30T01:52:39.816Z,8.57
2018-01-30T01:53:39.569Z,8.51
2018-01-30T01:54:39.574Z,8.55
2018-01-30T01:55:39.733Z,8.55
2018-01-30T01:56:40.162Z,8.52
2018-01-30T01:57:39.432Z,8.52
2018-01-30T01:58:40.056Z,8.49
2018-01-30T01:59:39.428Z,8.49
2018-01-30T02:00:39.523Z,8.48
2018-01-30T02:01:39.812Z,8.48
2018-01-30T02:02:39.614Z,8.47
2018-01-30T02:03:40.395Z,8.47
2018-01-30T02:04:39.569Z,8.47
2018-01-30T02:05:39.784Z,8.48
2018-01-30T02:06:39.830Z,8.47
2018-01-30T02:07:39.599Z,8.48
2018-01-30T02:08:39.665Z,8.48
2018-01-30T02:09:39.466Z,8.49
2018-01-30T02:10:39.625Z,8.47
2018-01-30T02:11:39.718Z,8.47
2018-01-30T02:12:39.595Z,8.48
2018-01-30T02:13:40.058Z,8.51
2018-01-30T02:14:39.492Z,8.45
2018-01-30T02:15:40.144Z,8.45
2018-01-30T02:16:39.925Z,8.48
2018-01-30T02:17:39.710Z,8.51
2018-01-30T02:18:39.342Z,8.49
2018-01-30T02:19:40.442Z,8.47
2018-01-30T02:20:39.622Z,8.48
2018-01-30T02:21:39.857Z,8.48
2018-01-30T02:22:40.079Z,8.48
2018-01-30T02:23:40.741Z,8.48
2018-01-30T02:24:39.849Z,8.48
2018-01-30T02:25:40.619Z,8.45
2018-01-30T02:26:39.559Z,8.47
2018-01-30T02:27:39.493Z,8.47
2018-01-30T02:28:39.958Z,8.45
2018-01-30T02:29:39.791Z,8.44
2018-01-30T02:30:39.546Z,8.43
2018-01-30T02:31:40.825Z,8.45
2018-01-30T02:32:39.926Z,8.44
2018-01-30T02:33:39.619Z,8.44
2018-01-30T02:34:40.060Z,8.44
2018-01-30T02:35:39.649Z,8.47
2018-01-30T02:36:39.976Z,8.47
2018-01-30T02:37:39.621Z,8.45
2018-01-30T02:38:40.182Z,8.44
2018-01-30T02:39:39.880Z,8.45
2018-01-30T02:40:39.686Z,8.43
2018-01-30T02:41:39.666Z,8.41
2018-01-30T02:42:40.026Z,8.43
2018-01-30T02:43:40.225Z,8.45
2018-01-30T02:44:39.719Z,8.41
2018-01-30T02:45:39.782Z,8.45
2018-01-30T02:46:39.845Z,8.48
2018-01-30T02:47:39.684Z,8.41
2018-01-30T02:48:39.705Z,8.38
2018-01-30T02:49:40.426Z,8.38
2018-01-30T02:50:39.995Z,8.4
2018-01-30T02:51:39.758Z,8.4
2018-01-30T02:52:39.730Z,8.43
2018-01-30T02:53:40.570Z,8.43
2018-01-30T02:54:40.674Z,8.43
2018-01-30T02:55:39.730Z,8.41
2018-01-30T02:56:39.964Z,8.41
2018-01-30T02:57:39.732Z,8.43
2018-01-30T02:58:39.876Z,8.43
2018-01-30T02:59:39.640Z,8.37
2018-01-30T03:00:39.572Z,8.33
2018-01-30T03:01:39.895Z,8.33
2018-01-30T03:02:40.476Z,8.36
2018-01-30T03:03:39.919Z,8.3
2018-01-30T03:04:39.787Z,8.37
2018-01-30T03:05:39.900Z,8.31
2018-01-30T03:06:39.699Z,8.34
2018-01-30T03:07:38.820Z,8.34
2018-01-30T03:08:38.943Z,8.31
2018-01-30T03:09:38.853Z,8.29
2018-01-30T03:10:38.744Z,8.26
2018-01-30T03:11:38.687Z,8.27
2018-01-30T03:12:39.016Z,8.24
2018-01-30T03:13:38.648Z,8.21
2018-01-30T03:14:39.133Z,8.21
2018-01-30T03:15:38.787Z,8.24
2018-01-30T03:16:39.046Z,8.21
2018-01-30T03:17:39.471Z,8.21
2018-01-30T03:18:39.263Z,8.2
2018-01-30T03:19:38.875Z,8.2
2018-01-30T03:20:38.799Z,8.21
2018-01-30T03:21:38.991Z,8.17
2018-01-30T03:22:38.688Z,8.16
2018-01-30T03:23:38.819Z,8.17
2018-01-30T03:24:38.806Z,8.14
2018-01-30T03:25:39.137Z,8.14
2018-01-30T03:26:38.627Z,8.09
2018-01-30T03:27:38.911Z,8.08
2018-01-30T03:28:38.870Z,8.03
2018-01-30T03:29:39.309Z,8.05
2018-01-30T03:30:38.637Z,8.01
2018-01-30T03:31:39.012Z,7.95
2018-01-30T03:32:38.531Z,7.93
2018-01-30T03:33:38.657Z,7.91
2018-01-30T03:34:38.589Z,7.91
2018-01-30T03:35:38.626Z,7.88
2018-01-30T03:36:38.592Z,7.78
2018-01-30T03:37:38.723Z,7.8
2018-01-30T03:38:38.604Z,7.77
2018-01-30T03:39:38.816Z,7.72
2018-01-30T03:40:38.766Z,7.72
2018-01-30T03:41:38.658Z,7.68
2018-01-30T03:42:38.553Z,7.67
2018-01-30T03:43:38.621Z,7.67
2018-01-30T03:44:38.635Z,7.62
2018-01-30T03:45:38.642Z,7.61
2018-01-30T03:46:38.666Z,7.58
2018-01-30T03:47:38.619Z,7.57
2018-01-30T03:48:38.694Z,7.54
2018-01-30T03:49:38.837Z,7.51
2018-01-30T03:50:38.602Z,7.5
2018-01-30T03:51:38.619Z,7.46
2018-01-30T03:52:38.660Z,7.46
2018-01-30T03:53:38.506Z,7.43
2018-01-30T03:54:38.576Z,7.43
2018-01-30T03:55:38.440Z,7.4
2018-01-30T03:56:38.777Z,7.4
2018-01-30T03:57:38.712Z,7.41
2018-01-30T03:58:38.748Z,7.41
2018-01-30T03:59:38.622Z,7.39
2018-01-30T04:00:38.701Z,7.37
2018-01-30T04:01:38.578Z,7.34
2018-01-30T04:02:38.733Z,7.34
2018-01-30T04:03:38.768Z,7.31
2018-01-30T04:04:38.711Z,7.31
2018-01-30T04:05:38.617Z,7.3
2018-01-30T04:06:38.618Z,7.27
2018-01-30T04:07:38.655Z,7.24
2018-01-30T04:08:38.788Z,7.26
2018-01-30T04:09:38.649Z,7.27
2018-01-30T04:10:38.639Z,7.27
2018-01-30T04:11:39.492Z,7.2
2018-01-30T04:12:38.792Z,7.22
2018-01-30T04:13:38.735Z,7.22
2018-01-30T04:14:38.842Z,7.2
2018-01-30T04:15:38.670Z,7.19
2018-01-30T04:16:38.634Z,7.18
2018-01-30T04:17:38.790Z,7.19
2018-01-30T04:18:38.759Z,7.2
2018-01-30T04:19:38.588Z,7.15
2018-01-30T04:20:38.746Z,7.18
2018-01-30T04:21:38.787Z,7.15
2018-01-30T04:22:38.584Z,7.12
2018-01-30T04:23:38.768Z,7.08
2018-01-30T04:24:38.637Z,7.12
2018-01-30T04:25:38.584Z,7.13
2018-01-30T04:26:38.639Z,7.13
2018-01-30T04:27:38.787Z,7.16
2018-01-30T04:28:38.767Z,7.16
2018-01-30T04:29:38.772Z,7.18
2018-01-30T04:30:38.783Z,7.2
2018-01-30T04:31:38.797Z,7.15
2018-01-30T04:32:38.780Z,7.2
2018-01-30T04:33:38.595Z,7.19
2018-01-30T04:34:38.775Z,7.18
2018-01-30T04:35:38.607Z,7.15
2018-01-30T04:36:38.586Z,7.12
2018-01-30T04:37:38.817Z,7.11
2018-01-30T04:38:38.627Z,7.08
2018-01-30T04:39:38.803Z,7.09
2018-01-30T04:40:38.690Z,7.11
2018-01-30T04:41:38.722Z,7.12
2018-01-30T04:42:38.887Z,7.16
2018-01-30T04:43:38.892Z,7.16
2018-01-30T04:44:38.865Z,7.19
2018-01-30T04:45:38.641Z,7.19
2018-01-30T04:46:38.785Z,7.15
2018-01-30T04:47:38.688Z,7.18
2018-01-30T04:48:38.654Z,7.19
2018-01-30T04:49:38.637Z,7.18
2018-01-30T04:50:38.854Z,7.2
2018-01-30T04:51:38.943Z,7.22
2018-01-30T04:52:38.669Z,7.2
2018-01-30T04:53:38.646Z,7.23
2018-01-30T04:54:38.610Z,7.23
2018-01-30T04:55:38.677Z,7.24
2018-01-30T04:56:38.835Z,7.15
2018-01-30T04:57:38.811Z,7.05
2018-01-30T04:58:38.796Z,7.02
2018-01-30T04:59:38.802Z,7.01
2018-01-30T05:00:38.775Z,7.01
2018-01-30T05:01:38.737Z,6.98
2018-01-30T05:02:38.639Z,6.94
2018-01-30T05:03:38.625Z,6.96
2018-01-30T05:04:38.848Z,6.96
2018-01-30T05:05:38.722Z,6.96
2018-01-30T05:06:38.828Z,6.98
2018-01-30T05:07:38.886Z,6.9
2018-01-30T05:08:38.697Z,6.85
2018-01-30T05:09:39.708Z,6.87
2018-01-30T05:10:38.848Z,6.87
2018-01-30T05:11:38.905Z,6.91
2018-01-30T05:12:38.765Z,6.88
2018-01-30T05:13:38.727Z,6.91
2018-01-30T05:14:38.828Z,6.94
2018-01-30T05:15:38.709Z,6.94
2018-01-30T05:16:38.831Z,6.91
2018-01-30T05:17:38.769Z,6.94
2018-01-30T05:18:38.774Z,6.94
2018-01-30T05:19:38.804Z,6.94
2018-01-30T05:20:38.744Z,6.94
2018-01-30T05:21:38.816Z,6.92
2018-01-30T05:22:38.741Z,6.95
2018-01-30T05:23:38.843Z,6.95
2018-01-30T05:24:38.634Z,6.95
2018-01-30T05:25:38.890Z,6.95
2018-01-30T05:26:38.780Z,6.95
2018-01-30T05:27:38.697Z,6.94
2018-01-30T05:28:38.911Z,6.94
2018-01-30T05:29:38.895Z,6.92
2018-01-30T05:30:38.827Z,6.92
2018-01-30T05:31:38.891Z,6.92
2018-01-30T05:32:38.815Z,6.91
2018-01-30T05:33:38.831Z,6.91
2018-01-30T05:34:38.814Z,6.91
2018-01-30T05:35:38.884Z,6.9
2018-01-30T05:36:38.674Z,6.87
2018-01-30T05:39:50.332Z,6.84
2018-01-30T05:40:39.263Z,6.83
2018-01-30T05:41:39.197Z,6.84
2018-01-30T05:42:39.284Z,6.81
2018-01-30T05:43:39.387Z,6.8
2018-01-30T05:44:39.288Z,6.78
2018-01-30T05:45:39.462Z,6.75
2018-01-30T05:46:39.250Z,6.75
2018-01-30T05:47:39.245Z,6.74
2018-01-30T05:48:39.309Z,6.73
2018-01-30T05:49:39.454Z,6.71
2018-01-30T05:50:39.290Z,6.73
2018-01-30T05:51:39.341Z,6.67
2018-01-30T05:52:39.307Z,6.64
2018-01-30T05:53:39.410Z,6.61
2018-01-30T05:54:39.426Z,6.58
2018-01-30T05:55:39.296Z,6.57
2018-01-30T05:56:39.371Z,6.6
2018-01-30T05:57:39.432Z,6.6
2018-01-30T05:58:39.414Z,6.6
2018-01-30T05:59:39.236Z,6.54
2018-01-30T06:00:39.347Z,6.54
2018-01-30T06:01:39.512Z,6.51
2018-01-30T06:02:39.284Z,6.53
2018-01-30T06:03:39.285Z,6.48
2018-01-30T06:04:39.261Z,6.51
2018-01-30T06:05:39.345Z,6.48
2018-01-30T06:06:39.351Z,6.5
2018-01-30T06:08:39.451Z,6.47
2018-01-30T06:09:39.628Z,6.43
2018-01-30T06:10:39.530Z,6.44
2018-01-30T06:11:39.504Z,6.48
2018-01-30T06:12:39.497Z,6.44
2018-01-30T06:13:39.437Z,6.44
2018-01-30T06:14:39.542Z,6.43
2018-01-30T06:15:39.429Z,6.44
2018-01-30T06:16:39.321Z,6.39
2018-01-30T06:17:39.312Z,6.4
2018-01-30T06:18:39.356Z,6.39
2018-01-30T06:19:39.285Z,6.37
2018-01-30T06:20:39.362Z,6.37
2018-01-30T06:21:39.380Z,6.35
2018-01-30T06:22:39.343Z,6.37
2018-01-30T06:23:39.406Z,6.37
2018-01-30T06:24:39.353Z,6.36
2018-01-30T06:25:39.292Z,6.35
2018-01-30T06:26:39.487Z,6.35
2018-01-30T06:27:39.433Z,6.33
2018-01-30T06:28:39.384Z,6.29
2018-01-30T06:29:39.377Z,6.29
2018-01-30T06:30:39.483Z,6.3
2018-01-30T06:31:39.412Z,6.29
2018-01-30T06:32:39.271Z,6.25
2018-01-30T06:33:39.297Z,6.23
2018-01-30T06:34:39.397Z,6.25
2018-01-30T06:35:39.438Z,6.22
2018-01-30T06:36:39.486Z,6.22
2018-01-30T06:37:39.563Z,6.23
2018-01-30T06:38:39.261Z,6.2
2018-01-30T06:39:39.279Z,6.19
2018-01-30T06:40:39.663Z,6.19
2018-01-30T06:41:39.484Z,6.16
2018-01-30T06:42:39.448Z,6.13
2018-01-30T06:43:39.476Z,6.13
2018-01-30T06:44:39.507Z,6.08
2018-01-30T06:45:39.581Z,6.06
2018-01-30T06:46:39.370Z,6.06
2018-01-30T06:47:39.460Z,6.06
2018-01-30T06:48:39.281Z,6.02
2018-01-30T06:49:39.475Z,6.02
2018-01-30T06:50:39.366Z,6.04
2018-01-30T06:51:39.325Z,6.04
2018-01-30T06:52:39.349Z,6.02
2018-01-30T06:53:39.389Z,6.04
2018-01-30T06:54:39.415Z,6
2018-01-30T06:55:39.509Z,6
2018-01-30T06:56:39.365Z,5.98
2018-01-30T06:57:39.261Z,5.97
2018-01-30T06:58:39.571Z,5.92
2018-01-30T06:59:39.451Z,5.9
2018-01-30T07:00:39.684Z,5.9
2018-01-30T07:01:39.432Z,5.85
2018-01-30T07:02:39.358Z,5.84
2018-01-30T07:03:39.255Z,5.83
2018-01-30T07:04:39.502Z,5.84
2018-01-30T07:05:39.479Z,5.81
2018-01-30T07:06:39.521Z,5.81
2018-01-30T07:07:39.318Z,5.8
2018-01-30T07:08:39.444Z,5.8
2018-01-30T07:09:39.528Z,5.8
2018-01-30T07:10:39.528Z,5.81
2018-01-30T07:11:39.479Z,5.8
2018-01-30T07:12:39.492Z,5.8
2018-01-30T07:13:39.434Z,5.78
2018-01-30T07:14:39.372Z,5.78
2018-01-30T07:15:39.366Z,5.77
2018-01-30T07:16:39.328Z,5.75
2018-01-30T07:17:39.528Z,5.78
2018-01-30T07:18:39.479Z,5.77
2018-01-30T07:19:39.516Z,5.75
2018-01-30T07:20:39.355Z,5.73
2018-01-30T07:21:39.389Z,5.73
2018-01-30T07:22:39.510Z,5.71
2018-01-30T07:23:39.349Z,5.71
2018-01-30T07:24:39.408Z,5.7
2018-01-30T07:25:39.452Z,5.69
2018-01-30T07:26:39.500Z,5.67
2018-01-30T07:27:39.406Z,5.63
2018-01-30T07:28:39.331Z,5.59
2018-01-30T07:29:39.371Z,5.6
2018-01-30T07:30:39.460Z,5.56
2018-01-30T07:31:39.386Z,5.57
2018-01-30T07:32:39.452Z,5.59
2018-01-30T07:33:39.377Z,5.54
2018-01-30T07:34:39.670Z,5.54
2018-01-30T07:35:39.389Z,5.54
2018-01-30T07:36:39.387Z,5.54
2018-01-30T07:37:39.356Z,5.54
2018-01-30T07:38:39.493Z,5.56
2018-01-30T07:39:39.500Z,5.5
2018-01-30T07:40:39.463Z,5.53
2018-01-30T07:41:39.357Z,5.51
2018-01-30T07:42:39.535Z,5.53
2018-01-30T07:43:39.556Z,5.53
2018-01-30T07:44:39.490Z,5.53
2018-01-30T07:45:39.473Z,5.54
2018-01-30T07:46:39.354Z,5.53
2018-01-30T07:47:39.402Z,5.56
2018-01-30T07:48:39.527Z,5.59
2018-01-30T07:49:39.518Z,5.57
2018-01-30T07:50:39.460Z,5.53
2018-01-30T07:51:40.032Z,5.5
2018-01-30T07:52:39.487Z,5.47
2018-01-30T07:53:39.480Z,5.47
2018-01-30T07:54:39.665Z,5.47
2018-01-30T07:55:39.518Z,5.47
2018-01-30T07:56:39.575Z,5.5
2018-01-30T07:57:39.637Z,5.51
2018-01-30T07:58:39.536Z,5.53
2018-01-30T07:59:39.626Z,5.54
2018-01-30T08:00:39.519Z,5.56
2018-01-30T08:01:39.584Z,5.54
2018-01-30T08:02:39.556Z,5.54
2018-01-30T08:03:39.372Z,5.56
2018-01-30T08:04:39.445Z,5.56
2018-01-30T08:05:39.561Z,5.59
2018-01-30T08:06:39.556Z,5.59
2018-01-30T08:07:39.741Z,5.6
2018-01-30T08:08:39.430Z,5.63
2018-01-30T08:09:39.589Z,5.63
2018-01-30T08:10:39.625Z,5.64
2018-01-30T08:11:39.556Z,5.63
2018-01-30T08:12:40.391Z,5.67
2018-01-30T08:13:39.450Z,5.69
2018-01-30T08:14:39.560Z,5.71
2018-01-30T08:15:39.679Z,5.69
2018-01-30T08:16:39.637Z,5.69
2018-01-30T08:17:39.454Z,5.71
2018-01-30T08:18:39.588Z,5.75
2018-01-30T08:19:39.710Z,5.81
2018-01-30T08:20:39.549Z,5.81
2018-01-30T08:21:39.530Z,5.84
2018-01-30T08:22:39.643Z,5.85
2018-01-30T08:23:39.378Z,5.85
2018-01-30T08:24:39.462Z,5.88
2018-01-30T08:25:39.577Z,5.91
2018-01-30T08:26:40.156Z,5.92
2018-01-30T08:27:39.548Z,5.92
2018-01-30T08:28:39.532Z,5.92
2018-01-30T08:29:39.463Z,5.92
2018-01-30T08:30:39.561Z,5.94
2018-01-30T08:31:39.395Z,6
2018-01-30T08:32:39.629Z,5.97
2018-01-30T08:33:39.616Z,6.01
2018-01-30T08:34:39.569Z,6.02
2018-01-30T08:35:39.543Z,6.06
2018-01-30T08:36:39.544Z,6.06
2018-01-30T08:37:39.608Z,6.09
2018-01-30T08:38:39.368Z,6.09
2018-01-30T08:39:39.421Z,6.02
2018-01-30T08:40:39.616Z,6.02
2018-01-30T08:41:39.346Z,6.06
2018-01-30T08:42:39.628Z,6.06
2018-01-30T08:43:39.514Z,6.11
2018-01-30T08:44:39.375Z,6.12
2018-01-30T08:45:39.501Z,6.16
2018-01-30T08:46:39.515Z,6.15
2018-01-30T08:47:39.392Z,6.19
2018-01-30T08:48:39.478Z,6.18
2018-01-30T08:49:39.464Z,6.22
2018-01-30T08:50:39.433Z,6.2
2018-01-30T08:51:39.476Z,6.22
2018-01-30T08:52:39.392Z,6.25
2018-01-30T08:53:39.381Z,6.28
2018-01-30T08:54:39.448Z,6.3
2018-01-30T08:55:39.556Z,6.32
2018-01-30T08:56:39.576Z,6.32
2018-01-30T08:57:39.559Z,6.37
2018-01-30T08:58:39.322Z,6.36
2018-01-30T08:59:39.310Z,6.36
2018-01-30T09:00:39.469Z,6.36
2018-01-30T09:01:39.697Z,6.37
2018-01-30T09:02:39.378Z,6.39
2018-01-30T09:03:39.388Z,6.39
2018-01-30T09:04:39.437Z,6.4
2018-01-30T09:05:39.493Z,6.41
2018-01-30T09:06:39.518Z,6.4
2018-01-30T09:07:39.954Z,6.47
2018-01-30T09:08:39.620Z,6.5
2018-01-30T09:09:39.408Z,6.48
2018-01-30T09:10:39.556Z,6.51
2018-01-30T09:11:38.602Z,6.53
2018-01-30T09:12:38.484Z,6.5
2018-01-30T09:13:38.901Z,6.51
2018-01-30T09:14:38.524Z,6.56
2018-01-30T09:15:38.517Z,6.56
2018-01-30T09:16:38.401Z,6.57
2018-01-30T09:17:38.582Z,6.58
2018-01-30T09:18:38.688Z,6.6
2018-01-30T09:19:38.540Z,6.58
2018-01-30T09:20:38.562Z,6.58
2018-01-30T09:21:39.500Z,6.56
2018-01-30T09:22:38.607Z,6.57
2018-01-30T09:23:38.556Z,6.57
2018-01-30T09:24:38.566Z,6.6
2018-01-30T09:25:38.634Z,6.6
2018-01-30T09:26:38.645Z,6.61
2018-01-30T09:27:38.588Z,6.63
2018-01-30T09:28:38.746Z,6.65
2018-01-30T09:29:38.674Z,6.68
2018-01-30T09:30:38.502Z,6.71
2018-01-30T09:31:38.536Z,6.73
2018-01-30T09:32:39.415Z,6.77
2018-01-30T09:33:38.833Z,6.78
2018-01-30T09:34:38.604Z,6.81
2018-01-30T09:35:38.516Z,6.8
2018-01-30T09:36:38.629Z,6.84
2018-01-30T09:37:38.665Z,6.87
2018-01-30T09:38:38.547Z,6.9
2018-01-30T09:39:38.567Z,6.9
2018-01-30T09:40:38.749Z,6.94
2018-01-30T09:41:38.795Z,6.98
2018-01-30T09:42:38.773Z,6.98
2018-01-30T09:43:38.722Z,7.02
2018-01-30T09:44:38.776Z,7.05
2018-01-30T09:45:38.839Z,7.08
2018-01-30T09:46:38.753Z,7.08
2018-01-30T09:47:38.647Z,7.12
2018-01-30T09:48:38.677Z,7.13
2018-01-30T09:49:38.763Z,7.15
2018-01-30T09:50:39.255Z,7.16
2018-01-30T09:51:38.775Z,7.22
2018-01-30T09:52:38.758Z,7.23
2018-01-30T09:53:38.788Z,7.23
2018-01-30T09:54:38.885Z,7.27
2018-01-30T09:55:38.962Z,7.29
2018-01-30T09:56:38.607Z,7.3
2018-01-30T09:57:38.596Z,7.34
2018-01-30T09:58:38.778Z,7.36
2018-01-30T09:59:38.786Z,7.43
2018-01-30T10:00:40.153Z,7.44
2018-01-30T10:01:38.828Z,7.43
2018-01-30T10:02:38.714Z,7.47
2018-01-30T10:03:39.318Z,7.47
2018-01-30T10:04:38.750Z,7.51
2018-01-30T10:05:38.549Z,7.53
2018-01-30T10:06:38.879Z,7.55
2018-01-30T10:07:38.575Z,7.59
2018-01-30T10:08:38.939Z,7.58
2018-01-30T10:09:38.583Z,7.58
2018-01-30T10:10:38.612Z,7.59
2018-01-30T10:11:38.988Z,7.59
2018-01-30T10:12:38.788Z,7.59
2018-01-30T10:13:38.745Z,7.58
2018-01-30T10:14:39.219Z,7.58
2018-01-30T10:15:38.913Z,7.58
2018-01-30T10:16:38.892Z,7.57
2018-01-30T10:17:38.734Z,7.58
2018-01-30T10:18:38.958Z,7.62
2018-01-30T10:19:39.304Z,7.57
2018-01-30T10:20:39.255Z,7.55
2018-01-30T10:21:38.904Z,7.55
2018-01-30T10:22:38.775Z,7.58
2018-01-30T10:23:38.986Z,7.61
2018-01-30T10:24:38.776Z,7.67
2018-01-30T10:25:39.083Z,7.68
2018-01-30T10:26:38.719Z,7.68
2018-01-30T10:27:38.874Z,7.71
2018-01-30T10:28:39.739Z,7.71
2018-01-30T10:29:40.120Z,7.75
2018-01-30T10:30:40.788Z,7.74
2018-01-30T10:31:40.593Z,7.75
2018-01-30T10:32:39.849Z,7.78
2018-01-30T10:33:39.114Z,7.78
2018-01-30T10:34:39.178Z,7.8
2018-01-30T10:35:38.896Z,7.82
2018-01-30T10:36:39.986Z,7.85
2018-01-30T10:37:39.539Z,7.85
2018-01-30T10:38:39.583Z,7.84
2018-01-30T10:39:40.042Z,7.86
2018-01-30T10:40:38.912Z,7.91
2018-01-30T10:41:39.430Z,7.92
2018-01-30T10:42:40.462Z,7.92
2018-01-30T10:43:39.474Z,7.93
2018-01-30T10:44:39.818Z,7.98
2018-01-30T10:45:39.282Z,7.96
2018-01-30T10:46:39.116Z,7.96
2018-01-30T10:47:39.681Z,7.99
2018-01-30T10:48:39.087Z,8.03
2018-01-30T10:49:39.740Z,8.03
2018-01-30T10:50:39.809Z,8.03
2018-01-30T10:51:40.064Z,8.03
2018-01-30T10:52:40.105Z,8.03
2018-01-30T10:53:39.211Z,8.05
2018-01-30T10:54:39.267Z,8.08
2018-01-30T10:55:40.312Z,8.09
2018-01-30T10:56:39.985Z,8.06
2018-01-30T10:57:39.281Z,8.05
2018-01-30T10:58:39.138Z,8.05
2018-01-30T10:59:39.175Z,8.02
2018-01-30T11:00:39.204Z,7.98
2018-01-30T11:01:40.258Z,7.99
2018-01-30T11:02:39.199Z,8.02
2018-01-30T11:03:39.250Z,8.05
2018-01-30T11:04:40.492Z,8.16
2018-01-30T11:05:39.278Z,8.16
2018-01-30T11:06:39.830Z,8.2
2018-01-30T11:07:39.180Z,8.23
2018-01-30T11:08:39.388Z,8.29
2018-01-30T11:09:39.921Z,8.24
2018-01-30T11:10:39.174Z,8.17
2018-01-30T11:11:40.284Z,8.21
2018-01-30T11:12:39.903Z,8.24
2018-01-30T11:13:39.140Z,8.3
2018-01-30T11:14:39.361Z,8.3
2018-01-30T11:15:39.385Z,8.33
2018-01-30T11:16:40.441Z,8.36
2018-01-30T11:17:39.254Z,8.23
2018-01-30T11:18:39.517Z,8.3
2018-01-30T11:19:39.297Z,8.29
2018-01-30T11:20:39.137Z,8.37
2018-01-30T11:21:39.109Z,8.4
2018-01-30T11:22:39.383Z,8.47
2018-01-30T11:23:39.324Z,8.52
2018-01-30T11:24:39.215Z,8.38
2018-01-30T11:25:39.349Z,8.33
2018-01-30T11:26:39.292Z,8.33
2018-01-30T11:27:39.423Z,8.37
2018-01-30T11:28:39.167Z,8.38
2018-01-30T11:29:39.121Z,8.41
2018-01-30T11:30:39.055Z,8.43
2018-01-30T11:31:39.278Z,8.45
2018-01-30T11:32:39.337Z,8.51
2018-01-30T11:33:39.098Z,8.51
2018-01-30T11:34:39.200Z,8.49
2018-01-30T11:35:39.337Z,8.54
2018-01-30T11:36:39.088Z,8.57
2018-01-30T11:37:39.255Z,8.58
2018-01-30T11:38:39.184Z,8.59
2018-01-30T11:39:39.200Z,8.61
2018-01-30T11:40:39.270Z,8.62
2018-01-30T11:41:39.937Z,8.59
2018-01-30T11:42:39.059Z,8.61
2018-01-30T11:43:38.869Z,8.62
2018-01-30T11:44:39.019Z,8.65
2018-01-30T11:45:38.876Z,8.66
2018-01-30T11:46:38.978Z,8.72
2018-01-30T11:47:38.778Z,8.71
2018-01-30T11:48:39.024Z,8.69
2018-01-30T11:49:39.002Z,8.74
2018-01-30T11:50:39.010Z,8.71
2018-01-30T11:51:38.749Z,8.71
2018-01-30T11:52:38.709Z,8.72
2018-01-30T11:53:38.947Z,8.75
2018-01-30T11:54:38.900Z,8.74
2018-01-30T11:55:38.835Z,8.75
2018-01-30T11:56:38.845Z,8.72
2018-01-30T11:57:38.814Z,8.71
2018-01-30T11:58:38.934Z,8.69
2018-01-30T11:59:39.425Z,8.71
2018-01-30T12:00:38.987Z,8.68
2018-01-30T12:01:39.006Z,8.69
2018-01-30T12:02:38.989Z,8.74
2018-01-30T12:03:39.058Z,8.74
2018-01-30T12:04:39.226Z,8.71
2018-01-30T12:05:39.068Z,8.69
2018-01-30T12:06:38.929Z,8.69
2018-01-30T12:07:38.868Z,8.72
2018-01-30T12:08:38.933Z,8.72
2018-01-30T12:09:38.846Z,8.79
2018-01-30T12:10:39.026Z,8.72
2018-01-30T12:11:39.010Z,8.72
2018-01-30T12:12:39.259Z,8.76
2018-01-30T12:13:39.168Z,8.82
2018-01-30T12:14:39.187Z,8.78
2018-01-30T12:15:39.055Z,8.8
2018-01-30T12:16:38.965Z,8.85
2018-01-30T12:17:39.014Z,8.91
2018-01-30T12:18:39.047Z,8.88
2018-01-30T12:19:39.005Z,8.92
2018-01-30T12:20:39.069Z,8.96
2018-01-30T12:21:39.018Z,8.99
2018-01-30T12:22:39.046Z,9.03
2018-01-30T12:23:39.146Z,9.04
2018-01-30T12:24:39.141Z,9.07
2018-01-30T12:25:39.157Z,9
2018-01-30T12:26:39.070Z,9.04
2018-01-30T12:27:39.098Z,9.04
2018-01-30T12:28:39.065Z,9.03
2018-01-30T12:29:39.042Z,9.04
2018-01-30T12:30:39.099Z,9.03
2018-01-30T12:31:38.969Z,9.03
2018-01-30T12:32:39.205Z,9.06
2018-01-30T12:33:39.615Z,9.03
2018-01-30T12:34:39.196Z,9.07
2018-01-30T12:35:39.200Z,9.09
2018-01-30T12:36:39.232Z,9.09
2018-01-30T12:37:39.523Z,9.19
2018-01-30T12:38:38.966Z,9.23
2018-01-30T12:39:39.184Z,9.26
2018-01-30T12:40:38.992Z,9.3
2018-01-30T12:41:39.344Z,9.27
2018-01-30T12:42:39.488Z,9.29
2018-01-30T12:43:39.021Z,9.34
2018-01-30T12:44:39.211Z,9.35
2018-01-30T12:45:39.249Z,9.4
2018-01-30T12:46:39.182Z,9.35
2018-01-30T12:47:39.305Z,9.33
2018-01-30T12:48:39.054Z,9.34
2018-01-30T12:49:39.070Z,9.41
2018-01-30T12:50:39.201Z,9.4
2018-01-30T12:51:39.157Z,9.42
2018-01-30T12:52:39.044Z,9.42
2018-01-30T12:53:39.277Z,9.44
2018-01-30T12:54:39.076Z,9.4
2018-01-30T12:55:39.022Z,9.44
2018-01-30T12:56:39.191Z,9.41
2018-01-30T12:57:38.996Z,9.4
2018-01-30T12:58:39.125Z,9.42
2018-01-30T12:59:39.212Z,9.41
2018-01-30T13:00:39.117Z,9.45
2018-01-30T13:01:39.811Z,9.48
2018-01-30T13:02:39.060Z,9.48
2018-01-30T13:03:39.248Z,9.4
2018-01-30T13:04:39.224Z,9.4
2018-01-30T13:05:38.956Z,9.42
2018-01-30T13:06:39.056Z,9.41
2018-01-30T13:07:38.928Z,9.45
2018-01-30T13:08:39.235Z,9.44
2018-01-30T13:09:39.197Z,9.45
2018-01-30T13:10:39.077Z,9.49
2018-01-30T13:11:38.974Z,9.49
2018-01-30T13:12:39.353Z,9.51
2018-01-30T13:13:39.336Z,9.55
2018-01-30T13:14:39.159Z,9.51
2018-01-30T13:15:39.420Z,9.48
2018-01-30T13:16:39.337Z,9.45
2018-01-30T13:17:39.374Z,9.44
2018-01-30T13:18:39.570Z,9.47
2018-01-30T13:19:39.319Z,9.51
2018-01-30T13:20:39.424Z,9.55
2018-01-30T13:21:39.271Z,9.57
2018-01-30T13:22:39.392Z,9.59
2018-01-30T13:23:39.295Z,9.61
2018-01-30T13:24:39.415Z,9.62